Time;durP1;ratioP1;P1;durP2;ratioP2;P2;SDS_P1;SDS_P2;PMS_P1;PMS_P2;Temp;Humidity;BMP_temperature;BMP_pressure;BME280_temperature;BME280_humidity;BME280_pressure;Samples;Min_cycle;Max_cycle;Signal;HPM_P1;HPM_P2
2021/10/23 00:00:43;;;;;;;7.28;3.67;;;;;;;6.36;67.35;93339.78;2038522;70;20168;-74
2021/10/23 00:03:09;;;;;;;6.03;3.00;;;;;;;6.47;66.61;93338.59;2038022;70;20568;-78
2021/10/23 00:05:35;;;;;;;5.63;3.17;;;;;;;6.44;66.51;93336.94;2038079;70;20507;-86
2021/10/23 00:08:01;;;;;;;6.18;3.42;;;;;;;6.46;66.64;93335.06;2038594;70;20144;-82
2021/10/23 00:10:27;;;;;;;9.57;3.40;;;;;;;6.46;67.07;93332.28;2038473;70;20626;-76
2021/10/23 00:12:52;;;;;;;5.50;3.22;;;;;;;6.45;66.48;93344.00;2038400;70;20262;-82
2021/10/23 00:15:18;;;;;;;5.95;2.60;;;;;;;6.58;65.99;93338.16;2038573;70;20150;-81
2021/10/23 00:17:44;;;;;;;5.97;2.72;;;;;;;6.52;66.02;93352.38;2038077;70;20171;-75
2021/10/23 00:20:10;;;;;;;5.28;3.40;;;;;;;6.36;67.29;93350.94;2038666;70;20147;-86
2021/10/23 00:22:36;;;;;;;6.65;3.40;;;;;;;6.44;65.05;93356.50;2038631;70;20183;-77
2021/10/23 00:25:02;;;;;;;4.88;3.00;;;;;;;6.26;66.83;93358.47;2038738;70;20497;-74
2021/10/23 00:27:32;;;;;;;6.93;3.20;;;;;;;6.40;66.94;93364.56;2038535;70;20607;-79
2021/10/23 00:30:02;;;;;;;7.22;3.60;;;;;;;6.23;67.99;93362.41;2038616;70;20155;-70
2021/10/23 00:32:28;;;;;;;7.10;3.38;;;;;;;6.44;66.61;93350.91;2038876;70;20234;-83
2021/10/23 00:34:55;;;;;;;7.32;3.60;;;;;;;6.40;67.50;93353.38;2038549;70;20684;-86
2021/10/23 00:37:22;;;;;;;8.35;3.70;;;;;;;6.41;67.66;93352.03;2038609;70;20155;-74
2021/10/23 00:39:49;;;;;;;3.85;3.15;;;;;;;6.38;67.56;93350.41;2038900;70;20179;-86
2021/10/23 00:42:15;;;;;;;3.75;2.88;;;;;;;6.43;67.42;93349.44;2038688;70;20308;-72
2021/10/23 00:44:43;;;;;;;5.50;3.40;;;;;;;6.35;67.81;93352.28;2038527;70;20146;-72
2021/10/23 00:47:17;;;;;;;7.63;3.17;;;;;;;6.52;67.45;93343.97;2038477;70;20151;-85
2021/10/23 00:49:45;;;;;;;5.57;3.00;;;;;;;6.60;67.05;93350.25;2038439;70;20151;-81
2021/10/23 00:52:10;;;;;;;6.20;2.88;;;;;;;6.61;66.71;93351.00;2038472;70;20184;-81
2021/10/23 00:54:37;;;;;;;6.50;2.90;;;;;;;6.44;67.93;93348.13;2038442;70;20163;-74
2021/10/23 00:57:04;;;;;;;7.03;2.83;;;;;;;6.36;67.89;93350.94;2038466;70;20139;-75
2021/10/23 00:59:30;;;;;;;6.50;3.08;;;;;;;6.57;66.64;93351.41;2038510;70;20171;-75
2021/10/23 01:01:56;;;;;;;7.65;3.25;;;;;;;6.17;68.92;93345.84;2038769;70;20675;-80
2021/10/23 01:04:23;;;;;;;8.45;2.90;;;;;;;6.46;67.38;93351.09;2038363;70;20152;-82
2021/10/23 01:06:50;;;;;;;5.65;2.97;;;;;;;6.43;68.10;93352.97;2038971;70;20163;-85
2021/10/23 01:09:16;;;;;;;5.47;2.88;;;;;;;6.47;67.66;93360.97;2038761;70;20179;-80
2021/10/23 01:11:42;;;;;;;6.32;2.75;;;;;;;6.60;67.18;93361.47;2038689;70;20643;-82
2021/10/23 01:14:20;;;;;;;6.53;3.08;;;;;;;6.71;66.06;93357.47;2039391;70;20156;-84
2021/10/23 01:16:47;;;;;;;4.80;3.20;;;;;;;6.60;67.41;93355.13;2040279;70;20651;-78
2021/10/23 01:19:14;;;;;;;4.60;2.65;;;;;;;6.40;69.36;93362.50;2042346;70;20143;-77
2021/10/23 01:21:40;;;;;;;4.25;3.15;;;;;;;6.54;68.75;93363.72;2041036;70;20152;-76
2021/10/23 01:24:08;;;;;;;6.68;3.10;;;;;;;6.69;67.56;93359.31;2041888;70;20203;-81
2021/10/23 01:26:35;;;;;;;5.55;3.17;;;;;;;6.57;68.79;93359.03;2039583;70;20182;-78
2021/10/23 01:29:02;;;;;;;4.85;2.80;;;;;;;6.73;66.84;93354.81;2041564;70;20163;-85
2021/10/23 01:31:29;;;;;;;5.50;2.90;;;;;;;6.74;67.26;93355.59;2039320;70;20154;-80
2021/10/23 01:33:56;;;;;;;5.25;2.95;;;;;;;6.77;67.20;93348.84;2039191;70;20239;-80
2021/10/23 01:36:22;;;;;;;6.88;3.30;;;;;;;6.40;69.16;93344.97;2038925;70;20158;-82
2021/10/23 01:38:48;;;;;;;5.32;3.08;;;;;;;6.63;68.09;93348.38;2039565;70;20155;-79
2021/10/23 01:41:14;;;;;;;6.55;3.35;;;;;;;6.77;68.20;93349.56;2039346;70;20152;-81
2021/10/23 01:43:40;;;;;;;6.43;3.00;;;;;;;6.73;68.27;93348.47;2039330;70;20622;-85
2021/10/23 01:46:07;;;;;;;5.15;2.95;;;;;;;6.78;68.20;93355.91;2038746;70;20168;-80
2021/10/23 01:48:34;;;;;;;4.88;2.88;;;;;;;6.79;68.88;93354.63;2039142;70;20136;-83
2021/10/23 01:51:00;;;;;;;5.03;2.88;;;;;;;6.51;69.73;93355.75;2039332;70;20143;-77
2021/10/23 01:53:25;;;;;;;5.95;3.15;;;;;;;6.51;70.19;93355.75;2039867;70;20564;-77
2021/10/23 01:55:52;;;;;;;5.82;3.25;;;;;;;6.79;68.52;93360.22;2040230;70;20508;-77
2021/10/23 01:58:19;;;;;;;6.40;3.30;;;;;;;6.70;69.32;93361.56;2039411;70;20155;-85
2021/10/23 02:00:46;;;;;;;7.45;3.20;;;;;;;6.89;66.26;93361.06;2039195;70;20155;-80
2021/10/23 02:03:11;;;;;;;6.82;3.03;;;;;;;6.71;68.87;93362.31;2039211;70;20215;-82
2021/10/23 02:05:37;;;;;;;8.30;3.03;;;;;;;6.91;66.04;93363.28;2039180;70;20156;-83
2021/10/23 02:08:03;;;;;;;5.55;3.08;;;;;;;6.86;68.48;93362.19;2039227;70;20160;-81
2021/10/23 02:10:28;;;;;;;6.15;3.17;;;;;;;6.91;68.04;93358.44;2039329;70;20239;-73
2021/10/23 02:12:54;;;;;;;4.60;2.75;;;;;;;6.85;68.57;93367.06;2041611;70;20152;-78
2021/10/23 02:15:20;;;;;;;7.13;3.00;;;;;;;6.96;67.35;93360.25;2039887;70;20148;-72
2021/10/23 02:17:45;;;;;;;5.63;2.83;;;;;;;6.95;67.46;93360.84;2039216;70;20179;-83
2021/10/23 02:20:12;;;;;;;5.50;2.90;;;;;;;7.05;67.08;93362.41;2039184;70;20180;-86
2021/10/23 02:22:39;;;;;;;3.78;2.72;;;;;;;7.04;67.43;93360.19;2039387;70;20244;-85
2021/10/23 02:25:06;;;;;;;7.55;3.00;;;;;;;6.98;67.56;93363.22;2039246;70;20148;-75
2021/10/23 02:27:32;;;;;;;6.30;3.13;;;;;;;7.03;67.21;93365.06;2039223;70;20207;-83
2021/10/23 02:29:57;;;;;;;5.55;2.53;;;;;;;7.04;67.63;93377.72;2039231;70;20143;-77
2021/10/23 02:32:23;;;;;;;4.38;2.72;;;;;;;7.05;68.55;93372.88;2038650;70;20139;-84
2021/10/23 02:34:49;;;;;;;5.80;3.00;;;;;;;6.87;69.11;93372.06;2038572;70;20219;-82
2021/10/23 02:37:14;;;;;;;5.53;2.90;;;;;;;6.43;71.72;93377.41;2039259;70;20140;-87
2021/10/23 02:39:40;;;;;;;6.05;2.45;;;;;;;6.72;69.87;93383.38;2039125;70;20142;-83
2021/10/23 02:42:06;;;;;;;4.82;2.90;;;;;;;6.81;68.63;93383.50;2038724;70;20159;-86
2021/10/23 02:44:32;;;;;;;10.13;3.38;;;;;;;6.87;67.50;93386.84;2039296;70;20223;-88
2021/10/23 02:46:58;;;;;;;5.45;2.80;;;;;;;6.82;69.01;93389.84;2039291;70;20158;-80
2021/10/23 02:49:23;;;;;;;6.43;3.17;;;;;;;6.78;69.43;93392.28;2039116;70;20171;-88
2021/10/23 02:51:49;;;;;;;5.72;2.80;;;;;;;6.86;69.03;93393.72;2039639;70;20215;-74
2021/10/23 02:54:14;;;;;;;9.40;2.85;;;;;;;6.92;68.12;93381.56;2039305;70;20147;-88
2021/10/23 02:56:40;;;;;;;4.75;2.75;;;;;;;7.00;68.26;93390.66;2039322;70;20235;-74
2021/10/23 02:59:06;;;;;;;5.13;2.80;;;;;;;7.08;68.43;93380.88;2039180;70;20259;-80
2021/10/23 03:01:32;;;;;;;6.95;2.72;;;;;;;7.12;67.57;93383.28;2039621;70;20155;-81
2021/10/23 03:03:58;;;;;;;6.32;2.63;;;;;;;7.00;68.44;93394.19;2039834;70;20188;-74
2021/10/23 03:06:23;;;;;;;4.10;2.40;;;;;;;7.08;68.23;93389.28;2042751;70;20163;-78
2021/10/23 03:08:49;;;;;;;6.53;2.78;;;;;;;7.10;68.31;93406.25;2040510;70;20215;-78
2021/10/23 03:11:16;;;;;;;4.70;3.03;;;;;;;7.10;67.56;93399.91;2039954;70;20147;-77
2021/10/23 03:13:42;;;;;;;5.43;2.60;;;;;;;7.11;67.63;93398.59;2039152;70;20159;-87
2021/10/23 03:16:08;;;;;;;4.22;2.78;;;;;;;7.30;66.27;93400.88;2039100;70;20223;-84
2021/10/23 03:18:34;;;;;;;4.03;2.60;;;;;;;7.33;66.02;93403.28;2038922;70;20150;-86
2021/10/23 03:20:59;;;;;;;4.10;2.67;;;;;;;7.19;68.37;93404.13;2038498;70;20552;-77
2021/10/23 03:23:25;;;;;;;4.22;2.90;;;;;;;7.04;68.72;93413.38;2039023;70;20175;-75
2021/10/23 03:25:51;;;;;;;5.90;3.10;;;;;;;7.07;68.46;93409.47;2039145;70;20218;-86
2021/10/23 03:28:16;;;;;;;6.10;3.00;;;;;;;6.79;69.86;93418.97;2039094;70;20591;-80
2021/10/23 03:30:42;;;;;;;5.70;3.28;;;;;;;6.92;69.58;93418.72;2039309;70;20591;-83
2021/10/23 03:33:08;;;;;;;6.88;2.80;;;;;;;6.99;69.09;93423.50;2039131;70;20227;-85
2021/10/23 03:35:33;;;;;;;4.78;2.70;;;;;;;7.22;67.30;93423.34;2039179;70;20592;-89
2021/10/23 03:37:59;;;;;;;4.90;3.00;;;;;;;7.21;67.22;93429.53;2039115;70;20227;-77
2021/10/23 03:40:25;;;;;;;3.85;2.80;;;;;;;7.17;68.82;93432.72;2039101;70;20147;-87
2021/10/23 03:42:51;;;;;;;3.80;2.90;;;;;;;7.18;68.57;93422.25;2039189;70;20181;-82
2021/10/23 03:45:16;;;;;;;5.30;3.00;;;;;;;7.22;68.55;93423.34;2039194;70;20183;-76
2021/10/23 03:47:42;;;;;;;4.80;3.10;;;;;;;7.21;68.50;93430.25;2038961;70;20531;-85
2021/10/23 03:50:09;;;;;;;5.32;3.22;;;;;;;7.17;67.99;93432.72;2038746;70;20246;-90
2021/10/23 03:52:35;;;;;;;4.75;3.10;;;;;;;7.23;68.13;93435.28;2038836;70;20148;-82
2021/10/23 03:55:01;;;;;;;5.22;3.50;;;;;;;7.11;68.39;93443.41;2038808;70;20149;-79
2021/10/23 03:57:27;;;;;;;7.05;3.45;;;;;;;7.06;68.38;93433.91;2039043;70;20152;-82
2021/10/23 03:59:52;;;;;;;5.13;3.28;;;;;;;7.15;68.24;93443.75;2038278;70;20178;-81
2021/10/23 04:02:20;;;;;;;4.30;3.20;;;;;;;7.26;67.26;93440.47;2039529;70;20151;-71
2021/10/23 04:04:45;;;;;;;4.30;3.17;;;;;;;7.25;67.93;93449.47;2039455;70;20159;-82
2021/10/23 04:07:11;;;;;;;7.47;3.33;;;;;;;7.30;67.62;93451.28;2038896;70;20143;-85
2021/10/23 04:09:37;;;;;;;5.05;3.30;;;;;;;7.24;67.57;93456.38;2038668;70;20154;-79
2021/10/23 04:12:03;;;;;;;3.90;3.10;;;;;;;7.22;68.03;93456.19;2038170;70;20159;-79
2021/10/23 04:14:29;;;;;;;4.65;3.30;;;;;;;7.30;67.69;93456.91;2038756;70;20655;-79
2021/10/23 04:16:54;;;;;;;4.88;3.40;;;;;;;7.32;67.69;93455.00;2038910;70;20221;-79
2021/10/23 04:19:20;;;;;;;6.03;3.40;;;;;;;7.31;68.31;93455.56;2038565;70;20152;-85
2021/10/23 04:21:46;;;;;;;5.15;3.55;;;;;;;7.28;68.75;93457.44;2038843;70;20163;-85
2021/10/23 04:24:11;;;;;;;5.03;3.05;;;;;;;7.32;67.17;93457.78;2038717;70;20151;-82
2021/10/23 04:26:38;;;;;;;4.95;3.20;;;;;;;7.28;68.27;93462.31;2038825;70;20150;-77
2021/10/23 04:29:04;;;;;;;3.58;3.00;;;;;;;7.20;68.83;93459.59;2038949;70;20148;-82
2021/10/23 04:31:30;;;;;;;5.50;3.00;;;;;;;7.00;70.21;93455.03;2039747;70;20621;-74
2021/10/23 04:33:55;;;;;;;4.22;3.47;;;;;;;6.87;70.81;93465.22;2040077;70;20152;-76
2021/10/23 04:36:22;;;;;;;6.50;4.25;;;;;;;7.01;70.84;93450.91;2040365;70;20148;-74
2021/10/23 04:38:48;;;;;;;16.15;9.75;;;;;;;6.71;71.59;93463.78;2039991;70;20155;-84
2021/10/23 04:41:13;;;;;;;13.10;7.82;;;;;;;7.05;70.06;93456.88;2038825;70;20148;-86
2021/10/23 04:43:39;;;;;;;13.52;7.45;;;;;;;7.18;69.39;93458.66;2039312;70;20194;-87
2021/10/23 04:46:05;;;;;;;11.07;6.35;;;;;;;7.23;68.96;93458.41;2038976;70;20160;-84
2021/10/23 04:48:32;;;;;;;8.88;5.40;;;;;;;7.21;69.38;93466.66;2038537;70;20151;-75
2021/10/23 04:50:58;;;;;;;8.80;4.47;;;;;;;7.22;69.73;93462.53;2040149;70;20144;-72
2021/10/23 04:53:24;;;;;;;7.68;4.47;;;;;;;7.25;67.58;93469.06;2041967;70;20151;-78
2021/10/23 04:55:50;;;;;;;5.32;3.75;;;;;;;6.93;70.19;93464.25;2040486;70;20219;-83
2021/10/23 04:58:16;;;;;;;6.63;3.80;;;;;;;7.16;68.65;93466.91;2039012;70;20158;-81
2021/10/23 05:00:41;;;;;;;5.32;3.47;;;;;;;7.24;68.85;93470.38;2038858;70;20162;-82
2021/10/23 05:03:07;;;;;;;6.47;3.50;;;;;;;7.26;68.31;93471.28;2038875;70;20156;-83
2021/10/23 05:05:33;;;;;;;7.55;3.90;;;;;;;7.15;68.00;93463.34;2038956;70;20671;-77
2021/10/23 05:07:59;;;;;;;9.55;6.18;;;;;;;6.99;69.74;93473.91;2038820;70;20151;-79
2021/10/23 05:10:24;;;;;;;12.32;6.47;;;;;;;7.19;69.22;93479.75;2038928;70;20292;-85
2021/10/23 05:12:50;;;;;;;7.53;4.80;;;;;;;7.24;68.61;93481.56;2039221;70;20285;-74
2021/10/23 05:15:16;;;;;;;5.50;4.00;;;;;;;7.27;68.81;93483.25;2039033;70;20588;-82
2021/10/23 05:17:41;;;;;;;4.88;3.60;;;;;;;7.27;68.06;93488.84;2038245;70;20151;-83
2021/10/23 05:20:08;;;;;;;3.75;3.00;;;;;;;7.25;69.48;93483.06;2038996;70;20155;-86
2021/10/23 05:22:33;;;;;;;7.45;3.22;;;;;;;7.33;68.37;93492.91;2039010;70;20139;-84
2021/10/23 05:24:59;;;;;;;7.00;3.10;;;;;;;7.28;69.21;93490.31;2038870;70;20154;-80
2021/10/23 05:27:25;;;;;;;5.00;3.42;;;;;;;7.30;68.62;93485.66;2038811;70;20140;-84
2021/10/23 05:29:50;;;;;;;4.95;3.50;;;;;;;6.97;70.80;93496.13;2038923;70;20139;-83
2021/10/23 05:32:16;;;;;;;6.90;4.75;;;;;;;7.05;70.36;93496.81;2038843;70;20193;-79
2021/10/23 05:34:41;;;;;;;8.02;3.85;;;;;;;7.25;69.31;93497.09;2038645;70;20691;-81
2021/10/23 05:37:07;;;;;;;5.90;3.58;;;;;;;7.31;68.38;93501.13;2039120;70;20131;-79
2021/10/23 05:39:33;;;;;;;5.47;3.80;;;;;;;7.29;68.88;93500.97;2039018;70;20221;-85
2021/10/23 05:41:58;;;;;;;5.65;3.83;;;;;;;7.30;68.73;93502.44;2038906;70;20144;-83
2021/10/23 05:44:24;;;;;;;9.32;4.70;;;;;;;7.32;69.21;93499.06;2038995;70;20631;-78
2021/10/23 05:46:49;;;;;;;9.43;5.32;;;;;;;7.36;69.00;93505.75;2039090;70;20162;-84
2021/10/23 05:49:15;;;;;;;6.00;4.30;;;;;;;7.24;69.42;93509.56;2039361;70;20151;-73
2021/10/23 05:51:40;;;;;;;8.52;4.20;;;;;;;7.00;70.94;93511.03;2041435;70;20131;-76
2021/10/23 05:54:06;;;;;;;7.97;4.43;;;;;;;6.86;70.82;93516.88;2039541;70;20171;-89
2021/10/23 05:56:32;;;;;;;5.70;4.10;;;;;;;7.18;69.57;93523.81;2038984;70;20670;-82
2021/10/23 05:59:11;;;;;;;14.82;9.13;;;;;;;7.27;68.79;93523.19;2039251;70;20205;-83
2021/10/23 06:01:42;;;;;;;14.52;10.88;;;;;;;7.35;68.60;93520.34;2039385;70;20630;-85
2021/10/23 06:04:07;;;;;;;27.48;20.38;;;;;;;7.25;68.44;93519.47;2039678;70;20219;-82
2021/10/23 06:06:33;;;;;;;28.42;19.75;;;;;;;7.45;67.40;93524.00;2039377;70;20576;-85
2021/10/23 06:09:00;;;;;;;15.07;10.85;;;;;;;7.50;67.01;93525.84;2039973;70;20203;-81
2021/10/23 06:11:28;;;;;;;20.38;13.98;;;;;;;7.47;67.86;93529.03;2041283;70;20216;-91
2021/10/23 06:13:56;;;;;;;23.85;16.20;;;;;;;7.47;68.26;93532.59;2040056;70;20215;-82
2021/10/23 06:16:22;;;;;;;16.83;11.13;;;;;;;7.53;67.55;93526.75;2039816;70;20223;-82
2021/10/23 06:18:48;;;;;;;15.60;9.32;;;;;;;7.42;68.62;93538.41;2039702;70;20591;-76
2021/10/23 06:21:15;;;;;;;17.95;13.05;;;;;;;7.47;68.19;93534.63;2039694;70;20142;-81
2021/10/23 06:23:41;;;;;;;22.92;15.93;;;;;;;7.48;68.28;93536.88;2039701;70;20152;-81
2021/10/23 06:26:06;;;;;;;20.88;16.63;;;;;;;7.37;69.29;93545.72;2039640;70;20546;-76
2021/10/23 06:28:36;;;;;;;16.65;12.20;;;;;;;7.42;68.97;93552.41;2039442;70;20155;-82
2021/10/23 06:31:03;;;;;;;14.82;11.05;;;;;;;7.41;69.62;93560.06;2039402;70;20154;-82
2021/10/23 06:33:28;;;;;;;11.93;8.70;;;;;;;7.34;69.34;93550.41;2039380;70;20147;-83
2021/10/23 06:35:54;;;;;;;24.92;14.82;;;;;;;7.12;69.98;93557.63;2039223;70;20516;-78
2021/10/23 06:38:20;;;;;;;17.95;11.05;;;;;;;7.31;69.50;93554.34;2040595;70;20162;-74
2021/10/23 06:40:46;;;;;;;15.90;10.52;;;;;;;7.39;69.36;93559.91;2041448;70;20155;-74
2021/10/23 06:43:12;;;;;;;14.73;9.55;;;;;;;7.51;69.13;93560.94;2039994;70;20231;-85
2021/10/23 06:45:38;;;;;;;12.85;9.73;;;;;;;7.59;68.70;93560.91;2039507;70;20143;-79
2021/10/23 06:48:04;;;;;;;15.00;9.70;;;;;;;7.62;67.03;93560.50;2039165;70;20136;-85
2021/10/23 06:50:30;;;;;;;13.15;8.02;;;;;;;7.15;71.29;93569.78;2039162;70;20646;-88
2021/10/23 06:52:56;;;;;;;10.27;7.05;;;;;;;7.18;71.25;93568.63;2038792;70;20241;-87
2021/10/23 06:55:21;;;;;;;9.13;6.03;;;;;;;7.55;69.21;93568.94;2039767;70;20148;-80
2021/10/23 06:57:47;;;;;;;11.43;6.13;;;;;;;7.68;69.11;93568.69;2039475;70;20216;-77
2021/10/23 07:00:14;;;;;;;12.10;5.38;;;;;;;7.60;68.67;93577.13;2039422;70;20222;-83
2021/10/23 07:02:41;;;;;;;12.65;5.45;;;;;;;7.61;68.28;93581.44;2039422;70;20218;-86
2021/10/23 07:05:20;;;;;;;8.75;6.03;;;;;;;7.63;68.39;93592.06;2040004;70;20175;-79
2021/10/23 07:07:46;;;;;;;9.65;6.28;;;;;;;7.46;69.10;93595.53;2039143;70;20128;-79
2021/10/23 07:10:13;;;;;;;12.43;7.72;;;;;;;7.36;69.62;93601.00;2038841;70;20181;-81
2021/10/23 07:12:39;;;;;;;10.70;6.72;;;;;;;6.81;71.81;93609.47;2038569;70;20179;-81
2021/10/23 07:15:05;;;;;;;11.65;6.72;;;;;;;7.09;70.68;93608.41;2039163;70;20323;-82
2021/10/23 07:17:31;;;;;;;11.43;6.50;;;;;;;7.68;67.54;93607.91;2038988;70;20155;-81
2021/10/23 07:19:57;;;;;;;19.88;9.43;;;;;;;7.70;69.07;93608.09;2039211;70;20229;-86
2021/10/23 07:22:23;;;;;;;13.43;6.43;;;;;;;7.86;66.76;93603.13;2038682;70;20187;-86
2021/10/23 07:24:50;;;;;;;12.18;6.20;;;;;;;7.79;66.82;93615.91;2039328;70;20587;-82
2021/10/23 07:27:16;;;;;;;9.85;5.40;;;;;;;7.50;67.09;93615.50;2039397;70;20159;-84
2021/10/23 07:29:42;;;;;;;8.82;5.20;;;;;;;7.78;66.89;93616.44;2039340;70;20231;-80
2021/10/23 07:32:08;;;;;;;13.40;7.43;;;;;;;7.43;67.84;93607.16;2039781;70;20152;-80
2021/10/23 07:34:34;;;;;;;10.55;6.70;;;;;;;7.39;68.15;93616.69;2038889;70;20599;-79
2021/10/23 07:36:59;;;;;;;13.43;7.15;;;;;;;7.73;66.65;93611.81;2039261;70;20140;-83
2021/10/23 07:39:25;;;;;;;13.32;7.38;;;;;;;7.96;67.21;93620.06;2039185;70;20159;-85
2021/10/23 07:41:51;;;;;;;11.98;6.78;;;;;;;8.08;66.44;93619.03;2039088;70;20148;-74
2021/10/23 07:44:16;;;;;;;11.10;6.95;;;;;;;8.15;66.20;93617.47;2039174;70;20163;-74
2021/10/23 07:46:43;;;;;;;9.95;6.38;;;;;;;8.27;65.47;93620.56;2039076;70;20218;-88
2021/10/23 07:49:09;;;;;;;12.50;6.32;;;;;;;8.13;65.16;93626.47;2039269;70;20599;-84
2021/10/23 07:51:37;;;;;;;9.45;5.78;;;;;;;7.82;66.47;93622.41;2040341;70;20139;-88
2021/10/23 07:54:07;;;;;;;8.00;5.15;;;;;;;8.13;64.30;93618.06;2039355;70;20608;-83
2021/10/23 07:56:34;;;;;;;8.50;4.95;;;;;;;8.43;63.35;93615.59;2039320;70;20230;-80
2021/10/23 07:59:00;;;;;;;6.88;4.50;;;;;;;8.64;63.62;93633.53;2039094;70;20263;-88
2021/10/23 08:01:27;;;;;;;7.88;5.10;;;;;;;8.79;62.08;93624.22;2039384;70;20144;-87
2021/10/23 08:03:53;;;;;;;7.65;4.35;;;;;;;8.61;63.30;93625.50;2039744;70;20156;-87
2021/10/23 08:06:18;;;;;;;7.63;5.50;;;;;;;8.22;64.76;93630.72;2039562;70;20504;-83
2021/10/23 08:08:44;;;;;;;11.15;5.68;;;;;;;8.63;62.54;93634.84;2039529;70;20192;-85
2021/10/23 08:11:09;;;;;;;8.63;5.80;;;;;;;8.18;65.02;93638.78;2039319;70;20158;-84
2021/10/23 08:13:35;;;;;;;8.32;6.00;;;;;;;8.27;64.77;93635.34;2039420;70;20151;-83
2021/10/23 08:16:01;;;;;;;8.52;5.70;;;;;;;8.75;63.09;93628.75;2039601;70;20512;-79
2021/10/23 08:18:28;;;;;;;8.85;6.03;;;;;;;8.98;63.03;93632.09;2040902;70;20167;-75
2021/10/23 08:20:54;;;;;;;7.65;5.65;;;;;;;9.13;62.67;93628.34;2039848;70;20148;-88
2021/10/23 08:23:21;;;;;;;7.88;5.60;;;;;;;9.10;60.58;93629.50;2039761;70;20155;-83
2021/10/23 08:25:46;;;;;;;7.18;4.97;;;;;;;8.85;61.82;93621.91;2039284;70;20160;-73
2021/10/23 08:28:16;;;;;;;8.88;6.45;;;;;;;8.74;62.03;93627.28;2043419;70;20162;-73
2021/10/23 08:30:41;;;;;;;7.93;5.03;;;;;;;9.26;60.31;93627.28;2042083;70;20219;-85
2021/10/23 08:33:07;;;;;;;9.77;5.60;;;;;;;9.27;60.73;93631.56;2039464;70;20173;-81
2021/10/23 08:35:33;;;;;;;10.85;6.25;;;;;;;9.09;62.21;93622.41;2038606;70;20266;-80
2021/10/23 08:37:59;;;;;;;7.60;5.18;;;;;;;9.37;60.30;93623.94;2039231;70;20163;-81
2021/10/23 08:40:24;;;;;;;6.63;4.53;;;;;;;9.56;60.68;93628.94;2039337;70;20183;-91
2021/10/23 08:42:50;;;;;;;5.97;3.58;;;;;;;9.89;61.65;93623.78;2039159;70;20279;-74
2021/10/23 08:45:17;;;;;;;5.20;3.40;;;;;;;10.52;59.91;93623.00;2039134;70;20299;-84
2021/10/23 08:47:44;;;;;;;6.22;3.20;;;;;;;10.39;59.26;93620.59;2038311;70;20155;-82
2021/10/23 08:50:13;;;;;;;7.20;3.20;;;;;;;10.62;57.78;93618.13;2038427;70;20148;-82
2021/10/23 08:52:39;;;;;;;5.35;3.05;;;;;;;11.18;56.60;93620.88;2039010;70;20260;-82
2021/10/23 08:55:06;;;;;;;7.70;3.00;;;;;;;11.31;56.69;93621.75;2038992;70;20167;-73
2021/10/23 08:57:31;;;;;;;5.60;4.07;;;;;;;12.27;56.95;93622.91;2039308;70;20219;-87
2021/10/23 09:00:01;;;;;;;7.25;3.30;;;;;;;12.76;53.55;93620.59;2041018;70;20159;-84
2021/10/23 09:02:28;;;;;;;3.67;2.65;;;;;;;12.87;51.19;93622.72;2039517;70;20171;-83
2021/10/23 09:04:56;;;;;;;3.88;2.63;;;;;;;12.88;51.63;93632.72;2041409;70;20533;-80
2021/10/23 09:07:23;;;;;;;5.00;2.70;;;;;;;13.88;51.45;93627.88;2042404;70;20147;-77
2021/10/23 09:09:52;;;;;;;4.53;2.50;;;;;;;13.37;49.18;93636.69;2042225;70;20159;-77
2021/10/23 09:12:25;;;;;;;5.93;2.70;;;;;;;14.07;50.55;93632.63;2042309;70;20254;-80
2021/10/23 09:15:02;;;;;;;3.78;2.30;;;;;;;13.23;47.98;93635.75;2042072;70;20135;-80
2021/10/23 09:17:28;;;;;;;3.55;2.40;;;;;;;12.69;47.89;93628.66;2042987;70;20194;-86
2021/10/23 09:19:55;;;;;;;2.97;2.17;;;;;;;13.51;47.50;93644.59;2042032;70;20155;-83
2021/10/23 09:22:23;;;;;;;4.97;2.33;;;;;;;14.29;45.83;93644.59;2042193;70;20147;-81
2021/10/23 09:24:50;;;;;;;4.20;2.33;;;;;;;14.29;45.93;93655.91;2042956;70;20195;-85
2021/10/23 09:27:19;;;;;;;4.38;2.85;;;;;;;14.23;45.20;93656.28;2044271;70;20147;-77
2021/10/23 09:29:53;;;;;;;3.42;2.45;;;;;;;14.87;45.64;93664.47;2045516;70;20155;-82
2021/10/23 09:32:20;;;;;;;3.72;2.58;;;;;;;14.91;45.01;93678.91;2045199;70;20146;-79
2021/10/23 09:34:45;;;;;;;5.63;2.75;;;;;;;15.11;44.07;93667.28;2044902;70;20190;-81
2021/10/23 09:37:11;;;;;;;4.13;2.70;;;;;;;15.99;43.71;93673.13;2045771;70;20238;-77
2021/10/23 09:39:37;;;;;;;6.00;2.58;;;;;;;15.25;43.32;93668.13;2045915;70;20258;-78
2021/10/23 09:42:10;;;;;;;3.55;2.50;;;;;;;16.57;44.02;93682.66;2045864;70;20135;-79
2021/10/23 09:45:04;;;;;;;5.95;2.67;;;;;;;15.83;42.18;93669.34;2045242;70;20254;-87
2021/10/23 09:47:34;;;;;;;4.22;2.95;;;;;;;15.13;42.80;93670.25;2045528;70;20154;-81
2021/10/23 09:50:07;;;;;;;7.65;3.00;;;;;;;15.47;43.10;93677.94;2045294;70;20143;-86
2021/10/23 09:52:33;;;;;;;6.40;3.50;;;;;;;15.33;43.90;93671.44;2045781;70;20233;-77
2021/10/23 09:55:08;;;;;;;5.57;3.08;;;;;;;15.70;42.40;93667.91;2045612;70;20151;-82
2021/10/23 09:57:33;;;;;;;3.80;3.20;;;;;;;15.28;43.62;93669.72;2046028;70;20238;-77
2021/10/23 10:00:11;;;;;;;5.80;2.95;;;;;;;16.25;42.74;93668.88;2045662;70;20242;-73
2021/10/23 10:02:42;;;;;;;8.05;4.88;;;;;;;15.14;43.53;93658.28;2045389;70;20237;-72
2021/10/23 10:05:09;;;;;;;6.68;3.83;;;;;;;15.07;43.17;93669.88;2045642;70;20170;-75
2021/10/23 10:07:35;;;;;;;4.78;3.10;;;;;;;14.78;43.71;93659.66;2045522;70;20620;-76
2021/10/23 10:10:01;;;;;;;4.85;3.30;;;;;;;15.80;41.97;93656.38;2045533;70;20151;-77
2021/10/23 10:12:30;;;;;;;5.15;2.78;;;;;;;17.06;40.72;93648.31;2045492;70;20159;-73
2021/10/23 10:14:57;;;;;;;5.93;3.38;;;;;;;15.89;42.44;93641.28;2045971;70;20222;-75
2021/10/23 10:17:24;;;;;;;4.35;3.10;;;;;;;17.13;40.58;93639.44;2046835;70;20163;-81
2021/10/23 10:19:52;;;;;;;4.18;3.15;;;;;;;18.01;39.24;93643.81;2046655;70;20146;-76
2021/10/23 10:22:18;;;;;;;5.80;3.00;;;;;;;18.31;37.40;93643.78;2046212;70;20143;-80
2021/10/23 10:24:43;;;;;;;3.92;2.70;;;;;;;17.05;41.00;93644.00;2045337;70;20151;-76
2021/10/23 10:27:17;;;;;;;4.95;2.97;;;;;;;18.00;38.37;93643.06;2045832;70;20147;-79
2021/10/23 10:29:56;;;;;;;3.30;2.90;;;;;;;18.27;36.83;93639.38;2045735;70;20139;-76
2021/10/23 10:32:33;;;;;;;3.80;2.47;;;;;;;18.51;37.05;93631.22;2045439;70;20142;-79
2021/10/23 10:38:09;;;;;;;;;;;;;;;18.92;35.84;93623.78;2046012;70;20151;-77
2021/10/23 10:43:21;;;;;;;3.75;2.33;;;;;;;21.81;32.52;93622.97;2045100;70;20146;-80
2021/10/23 10:45:46;;;;;;;2.05;1.80;;;;;;;21.31;32.30;93623.41;2044369;70;20189;-75
2021/10/23 10:48:29;;;;;;;2.03;1.60;;;;;;;22.10;31.69;93618.16;2044713;70;20228;-75
2021/10/23 10:50:59;;;;;;;4.50;2.00;;;;;;;22.46;30.86;93630.81;2044996;70;20162;-84
2021/10/23 10:53:25;;;;;;;2.28;1.52;;;;;;;24.12;28.57;93621.13;2045030;70;20193;-80
2021/10/23 10:55:58;;;;;;;2.17;1.48;;;;;;;25.20;27.78;93615.72;2045594;70;20200;-82
2021/10/23 10:58:47;;;;;;;1.88;1.52;;;;;;;25.23;26.38;93622.97;2045695;70;20186;-73
2021/10/23 11:01:24;;;;;;;2.10;1.45;;;;;;;23.75;28.27;93618.03;2045138;70;20285;-78
2021/10/23 11:03:55;;;;;;;2.60;1.42;;;;;;;24.59;27.09;93609.31;2045118;70;20206;-77
2021/10/23 11:06:38;;;;;;;2.60;1.20;;;;;;;26.26;24.92;93617.69;2045196;70;20139;-83
2021/10/23 11:09:07;;;;;;;1.70;1.30;;;;;;;25.39;24.76;93618.97;2045134;70;20155;-75
2021/10/23 11:11:45;;;;;;;1.48;1.17;;;;;;;25.27;23.86;93620.16;2045714;70;20143;-73
2021/10/23 11:14:23;;;;;;;2.60;1.60;;;;;;;26.78;24.25;93614.19;2045334;70;20132;-74
2021/10/23 11:16:59;;;;;;;1.48;1.20;;;;;;;25.41;24.97;93608.19;2044554;70;20136;-73
2021/10/23 11:19:38;;;;;;;1.30;1.10;;;;;;;26.78;23.38;93593.97;2044920;70;20658;-85
2021/10/23 11:22:14;;;;;;;1.30;0.90;;;;;;;28.35;22.46;93600.84;2045064;70;20139;-78
2021/10/23 11:24:41;;;;;;;2.00;1.20;;;;;;;25.90;22.40;93594.00;2044648;70;20242;-72
2021/10/23 11:27:08;;;;;;;2.17;1.10;;;;;;;27.03;23.29;93600.06;2045026;70;20178;-77
2021/10/23 11:29:33;;;;;;;1.77;1.13;;;;;;;26.01;22.17;93592.72;2044709;70;20657;-72
2021/10/23 11:32:00;;;;;;;1.55;1.02;;;;;;;27.24;21.63;93587.38;2045026;70;20135;-74
2021/10/23 11:34:28;;;;;;;1.20;1.10;;;;;;;26.73;22.20;93583.06;2044746;70;20166;-75
2021/10/23 11:37:10;;;;;;;1.55;1.00;;;;;;;25.23;24.14;93567.47;2045033;70;20146;-74
2021/10/23 11:39:57;;;;;;;1.45;1.10;;;;;;;26.82;22.96;93562.25;2044309;70;20534;-85
2021/10/23 11:42:23;;;;;;;0.90;0.90;;;;;;;27.89;22.01;93549.75;2045314;70;20602;-82
2021/10/23 11:45:14;;;;;;;1.20;1.10;;;;;;;29.01;19.78;93555.69;2046247;70;20150;-76